Aérodrome :
LOGIN :

S'inscrire | Disclaimer

   EN    FR    IT 

 










Légende :    VFR   VFR Marginal   IFR   IFR Intensif   IFR Très Intensif
Visi : 
Plafond : 
>= 8 km
>= 3000ft
5 à 8 km
1000 à 3000 ft
1500m à 5 km
500 à 1000 ft
800 à 1500m
200 à 500 ft
< 800m
< 200 ft
Symboles :   Orages  Brouillard  Fortes neiges  Fortes précipitations  Vent > 20 kt
SIGMETs :   Divers  Orages  Givrage  Turbulence  Onde Orograph.  Cendres Volcan.







- Altitude de l'aérodrome : 26 ft
- Code IATA : BIA
- Voir les cartes d'approche


LFKB - Bastia

DERNIER METAR :
  • 181030Z 13006KT 090V170 CAVOK 22/16 Q1020 NOSIG

METARs EXPIRÉS :
  • 181000Z 12006KT 090V170 CAVOK 21/15 Q1020 NOSIG
  • 180930Z 13003KT 080V200 CAVOK 21/15 Q1020 NOSIG
  • 180900Z VRB03KT CAVOK 20/13 Q1020 NOSIG
  • 180830Z 00000KT CAVOK 19/12 Q1020 NOSIG

TAF TAF LFKB
Valide du 18 à 09h jusqu'au 19 à 09h UTC


180800Z 1809/1909 12008KT CAVOK
BECMG 1817/1819 22006KT
TEMPO 1820/1909 BKN015 TX23/1812Z TN12/1904Z
ATIS : +33 4 95 59 19 40
Pas de NOTAMs connus pour ce terrain.



MET'MAP, la Météo Aéronautique d'un coup d'oeil ! - Copyright ORBIFLY Décembre 2007 - Disclaimer

ORBIFLY MET'MAP TEAM :

Programmation & Développement : Alexandra Zaïnal
Conception & Développement : Baudouin d'Aumeries
Co-Programmation & Développement : Marc-Olivier Méhu
Soutien technique & logistique : Manuel Goepfert

Contact : metmap@orbifly.com




SOURCES & CREDITS :

   NOAA